createdAt,value
2022-12-18T00:01:30.203Z,100.00
2022-12-18T00:03:57.068Z,100.00
2022-12-18T00:06:25.021Z,100.00
2022-12-18T00:08:52.032Z,100.00
2022-12-18T00:11:20.169Z,100.00
2022-12-18T00:13:47.298Z,100.00
2022-12-18T00:16:14.932Z,100.00
2022-12-18T00:18:42.165Z,99.61
2022-12-18T00:21:10.221Z,99.35
2022-12-18T00:23:38.091Z,100.00
2022-12-18T00:26:09.184Z,100.00
2022-12-18T00:28:35.711Z,100.00
2022-12-18T00:31:02.367Z,100.00
2022-12-18T00:33:29.201Z,100.00
2022-12-18T00:35:55.732Z,100.00
2022-12-18T00:38:22.278Z,100.00
2022-12-18T00:40:50.321Z,100.00
2022-12-18T00:43:16.831Z,100.00
2022-12-18T00:45:43.696Z,100.00
2022-12-18T00:48:11.499Z,100.00
2022-12-18T00:50:38.374Z,100.00
2022-12-18T00:53:05.137Z,100.00
2022-12-18T00:55:31.701Z,100.00
2022-12-18T00:57:58.334Z,100.00
2022-12-18T01:00:24.875Z,100.00
2022-12-18T01:02:51.541Z,100.00
2022-12-18T01:05:18.254Z,100.00
2022-12-18T01:07:45.352Z,100.00
2022-12-18T01:10:13.093Z,100.00
2022-12-18T01:12:40.081Z,100.00
2022-12-18T01:15:07.584Z,100.00
2022-12-18T01:17:34.537Z,100.00
2022-12-18T01:20:01.660Z,100.00
2022-12-18T01:22:28.403Z,100.00
2022-12-18T01:24:54.969Z,100.00
2022-12-18T01:27:23.216Z,100.00
2022-12-18T01:29:52.375Z,100.00
2022-12-18T01:32:20.823Z,100.00
2022-12-18T01:34:47.366Z,100.00
2022-12-18T01:37:13.926Z,100.00
2022-12-18T01:39:40.494Z,100.00
2022-12-18T01:42:12.280Z,100.00
2022-12-18T01:44:57.728Z,100.00
2022-12-18T01:47:27.705Z,100.00
2022-12-18T01:49:54.988Z,100.00
2022-12-18T01:52:22.423Z,100.00
2022-12-18T01:54:50.128Z,100.00
2022-12-18T01:57:16.883Z,100.00
2022-12-18T01:59:45.314Z,100.00
2022-12-18T02:02:12.407Z,100.00
2022-12-18T02:04:39.086Z,100.00
2022-12-18T02:07:13.587Z,100.00
2022-12-18T02:09:45.707Z,100.00
2022-12-18T02:12:19.601Z,100.00
2022-12-18T02:14:51.642Z,100.00
2022-12-18T02:17:20.495Z,100.00
2022-12-18T02:20:06.292Z,100.00
2022-12-18T02:22:38.959Z,100.00
2022-12-18T02:25:15.045Z,100.00
2022-12-18T02:27:42.745Z,100.00
2022-12-18T02:30:09.508Z,100.00
2022-12-18T02:32:43.096Z,100.00
2022-12-18T02:35:13.989Z,100.00
2022-12-18T02:37:43.574Z,100.00
2022-12-18T02:40:11.716Z,100.00
2022-12-18T02:42:39.498Z,100.00
2022-12-18T02:45:08.204Z,100.00
2022-12-18T02:47:39.369Z,100.00
2022-12-18T02:50:09.650Z,100.00
2022-12-18T02:52:36.562Z,100.00
2022-12-18T02:55:04.935Z,100.00
2022-12-18T02:57:35.783Z,100.00
2022-12-18T03:00:03.961Z,100.00
2022-12-18T03:02:45.760Z,100.00
2022-12-18T03:05:15.816Z,100.00
2022-12-18T03:07:47.989Z,100.00
2022-12-18T03:10:17.671Z,100.00
2022-12-18T03:12:49.033Z,100.00
2022-12-18T03:15:22.754Z,100.00
2022-12-18T03:18:08.806Z,100.00
2022-12-18T03:20:37.232Z,100.00
2022-12-18T03:23:08.641Z,100.00
2022-12-18T03:25:38.846Z,100.00
2022-12-18T03:28:06.851Z,100.00
2022-12-18T03:30:36.959Z,100.00
2022-12-18T03:33:18.872Z,100.00
2022-12-18T03:35:47.646Z,100.00
2022-12-18T03:38:14.469Z,100.00
2022-12-18T03:41:14.637Z,100.00
2022-12-18T03:44:06.315Z,100.00
2022-12-18T03:46:42.751Z,100.00
2022-12-18T03:49:20.279Z,100.00
2022-12-18T03:51:53.857Z,100.00
2022-12-18T03:54:21.990Z,100.00
2022-12-18T03:57:07.820Z,100.00
2022-12-18T03:59:36.404Z,100.00
2022-12-18T04:02:05.049Z,100.00
2022-12-18T04:04:32.864Z,100.00
2022-12-18T04:07:02.442Z,100.00
2022-12-18T04:09:31.332Z,100.00
2022-12-18T04:11:58.217Z,100.00
2022-12-18T04:14:25.931Z,100.00
2022-12-18T04:16:55.689Z,100.00
2022-12-18T04:19:28.181Z,100.00
2022-12-18T04:21:55.395Z,100.00
2022-12-18T04:24:22.672Z,100.00
2022-12-18T04:27:01.259Z,100.00
2022-12-18T04:29:33.344Z,100.00
2022-12-18T04:32:00.060Z,100.00
2022-12-18T04:34:28.639Z,100.00
2022-12-18T04:36:55.537Z,100.00
2022-12-18T04:39:23.416Z,100.00
2022-12-18T04:41:55.561Z,100.00
2022-12-18T04:44:22.456Z,100.00
2022-12-18T04:46:49.026Z,100.00
2022-12-18T04:49:15.692Z,100.00
2022-12-18T04:51:42.310Z,100.00
2022-12-18T04:54:08.797Z,100.00
2022-12-18T04:56:35.331Z,100.00
2022-12-18T04:59:01.902Z,100.00
2022-12-18T05:01:34.366Z,100.00
2022-12-18T05:04:01.854Z,100.00
2022-12-18T05:06:28.444Z,100.00
2022-12-18T05:08:55.119Z,100.00
2022-12-18T05:11:21.642Z,100.00
2022-12-18T05:13:48.170Z,100.00
2022-12-18T05:16:15.407Z,100.00
2022-12-18T05:18:42.043Z,100.00
2022-12-18T05:21:08.831Z,100.00
2022-12-18T05:23:35.959Z,100.00
2022-12-18T05:26:04.292Z,100.00
2022-12-18T05:28:32.340Z,100.00
2022-12-18T05:30:59.992Z,100.00
2022-12-18T05:33:27.812Z,100.00
2022-12-18T05:35:55.314Z,100.00
2022-12-18T05:38:22.854Z,100.00
2022-12-18T05:40:49.988Z,100.00
2022-12-18T05:43:21.171Z,100.00
2022-12-18T05:45:48.866Z,100.00
2022-12-18T05:48:15.641Z,100.00
2022-12-18T05:50:43.812Z,100.00
2022-12-18T05:53:10.614Z,100.00
2022-12-18T05:55:38.720Z,100.00
2022-12-18T05:58:05.975Z,100.00
2022-12-18T06:00:33.876Z,100.00
2022-12-18T06:03:00.471Z,100.00
2022-12-18T06:05:27.355Z,100.00
2022-12-18T06:07:54.018Z,100.00
2022-12-18T06:10:20.619Z,100.00
2022-12-18T06:12:47.145Z,100.00
2022-12-18T06:15:14.128Z,100.00
2022-12-18T06:17:41.248Z,100.00
2022-12-18T06:20:08.020Z,100.00
2022-12-18T06:22:35.907Z,100.00
2022-12-18T06:25:02.639Z,100.00
2022-12-18T06:27:29.617Z,100.00
2022-12-18T06:29:56.294Z,100.00
2022-12-18T06:32:22.889Z,100.00
2022-12-18T06:34:49.483Z,100.00
2022-12-18T06:37:16.100Z,100.00
2022-12-18T06:39:42.705Z,100.00
2022-12-18T06:42:10.834Z,100.00
2022-12-18T06:44:37.399Z,100.00
2022-12-18T06:47:04.132Z,100.00
2022-12-18T06:49:30.907Z,100.00
2022-12-18T06:51:57.512Z,100.00
2022-12-18T06:54:24.149Z,100.00
2022-12-18T06:56:50.776Z,100.00
2022-12-18T06:59:17.609Z,100.00
2022-12-18T07:01:44.437Z,100.00
2022-12-18T07:04:11.090Z,100.00
2022-12-18T07:06:40.006Z,100.00
2022-12-18T07:09:06.785Z,100.00
2022-12-18T07:11:34.473Z,100.00
2022-12-18T07:14:01.211Z,100.00
2022-12-18T07:16:31.868Z,100.00
2022-12-18T07:18:58.746Z,100.00
2022-12-18T07:21:26.473Z,100.00
2022-12-18T07:23:53.216Z,100.00
2022-12-18T07:26:20.647Z,100.00
2022-12-18T07:28:47.572Z,100.00
2022-12-18T07:31:18.901Z,98.55
2022-12-18T07:33:46.341Z,97.34
2022-12-18T07:36:13.319Z,95.82
2022-12-18T07:38:40.010Z,94.97
2022-12-18T07:41:08.400Z,92.84
2022-12-18T07:43:35.262Z,93.15
2022-12-18T07:46:01.807Z,92.86
2022-12-18T07:48:28.959Z,91.73
2022-12-18T07:50:59.201Z,91.74
2022-12-18T07:53:25.789Z,91.17
2022-12-18T07:56:25.332Z,90.11
2022-12-18T07:58:42.880Z,89.81
2022-12-18T08:01:12.891Z,89.09
2022-12-18T08:03:40.781Z,88.09
2022-12-18T08:06:10.535Z,88.44
2022-12-18T08:08:37.360Z,89.46
2022-12-18T08:11:04.293Z,88.32
2022-12-18T08:13:30.886Z,86.43
2022-12-18T08:16:07.382Z,87.77
2022-12-18T08:18:34.767Z,86.03
2022-12-18T08:21:11.381Z,84.11
2022-12-18T08:23:42.324Z,83.55
2022-12-18T08:26:10.427Z,84.69
2022-12-18T08:28:36.951Z,84.19
2022-12-18T08:31:03.794Z,83.89
2022-12-18T08:33:30.919Z,84.29
2022-12-18T08:35:59.741Z,84.16
2022-12-18T08:38:26.928Z,82.97
2022-12-18T08:41:01.449Z,83.19
2022-12-18T08:44:01.500Z,83.45
2022-12-18T08:46:33.254Z,83.08
2022-12-18T08:49:00.254Z,81.46
2022-12-18T08:51:29.135Z,82.07
2022-12-18T08:53:57.517Z,81.35
2022-12-18T08:56:24.951Z,80.10
2022-12-18T08:58:53.568Z,78.22
2022-12-18T09:01:21.617Z,77.82
2022-12-18T09:03:49.960Z,80.29
2022-12-18T09:06:17.814Z,80.25
2022-12-18T09:08:45.495Z,80.38
2022-12-18T09:11:30.687Z,79.71
2022-12-18T09:13:57.285Z,78.61
2022-12-18T09:16:30.180Z,77.95
2022-12-18T09:19:02.401Z,76.21
2022-12-18T09:21:30.689Z,76.74
2022-12-18T09:23:57.707Z,76.43
2022-12-18T09:26:25.755Z,78.35
2022-12-18T09:28:52.379Z,76.82
2022-12-18T09:31:20.054Z,76.17
2022-12-18T09:33:46.842Z,77.32
2022-12-18T09:36:17.718Z,76.45
2022-12-18T09:38:44.683Z,76.15
2022-12-18T09:41:23.570Z,76.37
2022-12-18T09:43:55.542Z,77.78
2022-12-18T09:46:27.134Z,79.46
2022-12-18T09:48:56.752Z,81.00
2022-12-18T09:51:27.469Z,79.29
2022-12-18T09:53:59.499Z,79.08
2022-12-18T09:56:28.757Z,80.84
2022-12-18T09:59:01.992Z,82.92
2022-12-18T10:01:38.879Z,83.69
2022-12-18T10:04:10.188Z,83.44
2022-12-18T10:06:40.569Z,83.68
2022-12-18T10:09:27.312Z,82.65
2022-12-18T10:11:59.992Z,81.18
2022-12-18T10:14:26.477Z,84.25
2022-12-18T10:16:52.989Z,85.19
2022-12-18T10:19:19.457Z,83.67
2022-12-18T10:21:46.035Z,84.55
2022-12-18T10:24:34.936Z,82.36
2022-12-18T10:27:21.798Z,84.43
2022-12-18T10:29:48.474Z,83.11
2022-12-18T10:32:19.371Z,81.78
2022-12-18T10:34:54.084Z,82.92
2022-12-18T10:37:26.803Z,83.02
2022-12-18T10:40:09.030Z,83.24
2022-12-18T10:42:35.608Z,85.45
2022-12-18T10:45:04.451Z,84.50
2022-12-18T10:47:31.074Z,81.94
2022-12-18T10:49:57.896Z,82.90
2022-12-18T10:52:26.089Z,84.16
2022-12-18T10:54:54.335Z,86.09
2022-12-18T10:57:26.996Z,85.44
2022-12-18T10:59:55.661Z,86.41
2022-12-18T11:02:34.292Z,86.56
2022-12-18T11:05:01.403Z,86.08
2022-12-18T11:07:47.777Z,85.76
2022-12-18T11:10:17.707Z,84.45
2022-12-18T11:12:44.433Z,86.12
2022-12-18T11:15:19.809Z,89.21
2022-12-18T11:17:48.773Z,90.81
2022-12-18T11:20:24.718Z,89.21
2022-12-18T11:22:58.422Z,89.17
2022-12-18T11:25:34.353Z,86.88
2022-12-18T11:28:06.365Z,86.08
2022-12-18T11:30:34.140Z,84.37
2022-12-18T11:33:04.507Z,84.38
2022-12-18T11:35:54.310Z,87.52
2022-12-18T11:38:20.933Z,86.70
2022-12-18T11:40:51.414Z,86.54
2022-12-18T11:43:21.620Z,85.27
2022-12-18T11:45:53.426Z,85.79
2022-12-18T11:48:23.079Z,85.63
2022-12-18T11:50:53.934Z,84.88
2022-12-18T11:53:21.373Z,83.95
2022-12-18T11:55:59.889Z,83.74
2022-12-18T11:58:31.583Z,90.12
2022-12-18T12:01:04.524Z,91.02
2022-12-18T12:03:58.264Z,86.15
2022-12-18T12:06:30.129Z,86.23
2022-12-18T12:08:59.457Z,85.85
2022-12-18T12:11:29.046Z,85.17
2022-12-18T12:14:14.384Z,86.15
2022-12-18T12:16:50.125Z,84.94
2022-12-18T12:19:22.642Z,83.60
2022-12-18T12:21:52.152Z,82.43
2022-12-18T12:24:45.022Z,83.59
2022-12-18T12:27:14.405Z,84.62
2022-12-18T12:29:40.859Z,83.50
2022-12-18T12:32:26.265Z,81.82
2022-12-18T12:35:07.705Z,81.69
2022-12-18T12:37:56.459Z,82.19
2022-12-18T12:40:52.091Z,82.87
2022-12-18T12:43:23.066Z,83.22
2022-12-18T12:46:10.470Z,83.97
2022-12-18T12:48:50.194Z,84.46
2022-12-18T12:51:18.847Z,84.64
2022-12-18T12:53:46.407Z,83.96
2022-12-18T12:56:15.539Z,84.18
2022-12-18T12:58:45.280Z,86.05
2022-12-18T13:01:23.278Z,86.52
2022-12-18T13:04:09.177Z,87.69
2022-12-18T13:06:44.773Z,88.31
2022-12-18T13:09:11.643Z,89.89
2022-12-18T13:12:01.588Z,89.43
2022-12-18T13:14:41.835Z,89.71
2022-12-18T13:17:26.200Z,89.71
2022-12-18T13:20:03.724Z,89.22
2022-12-18T13:22:32.955Z,88.98
2022-12-18T13:25:00.258Z,88.45
2022-12-18T13:27:47.587Z,88.42
2022-12-18T13:30:32.388Z,87.22
2022-12-18T13:33:14.369Z,87.88
2022-12-18T13:35:41.255Z,89.15
2022-12-18T13:38:21.822Z,89.88
2022-12-18T13:40:48.362Z,90.27
2022-12-18T13:43:21.165Z,89.37
2022-12-18T13:46:01.068Z,88.74
2022-12-18T13:48:28.399Z,87.54
2022-12-18T13:50:58.617Z,87.98
2022-12-18T13:53:31.048Z,87.78
2022-12-18T13:55:58.093Z,88.52
2022-12-18T13:58:24.919Z,90.71
2022-12-18T14:00:51.509Z,92.50
2022-12-18T14:03:22.403Z,91.82
2022-12-18T14:06:08.095Z,91.71
2022-12-18T14:08:42.272Z,91.61
2022-12-18T14:11:20.667Z,91.82
2022-12-18T14:13:48.451Z,89.97
2022-12-18T14:16:16.504Z,90.42
2022-12-18T14:18:51.754Z,90.51
2022-12-18T14:21:28.772Z,90.79
2022-12-18T14:24:24.951Z,90.22
2022-12-18T14:26:52.048Z,90.78
2022-12-18T14:29:21.584Z,91.69
2022-12-18T14:32:05.056Z,93.47
2022-12-18T14:34:31.593Z,93.67
2022-12-18T14:36:58.279Z,92.85
2022-12-18T14:39:26.411Z,92.65
2022-12-18T14:41:54.291Z,92.43
2022-12-18T14:44:22.382Z,92.88
2022-12-18T14:46:50.542Z,97.29
2022-12-18T14:49:26.010Z,98.14
2022-12-18T14:51:57.140Z,97.22
2022-12-18T14:54:25.124Z,94.70
2022-12-18T14:57:02.925Z,94.78
2022-12-18T14:59:30.505Z,95.86
2022-12-18T15:01:57.106Z,94.24
2022-12-18T15:04:26.542Z,94.38
2022-12-18T15:07:11.194Z,94.78
2022-12-18T15:09:38.922Z,95.60
2022-12-18T15:12:05.801Z,95.59
2022-12-18T15:14:38.524Z,94.69
2022-12-18T15:17:07.306Z,95.99
2022-12-18T15:19:34.019Z,95.53
2022-12-18T15:22:06.100Z,95.41
2022-12-18T15:24:33.676Z,95.25
2022-12-18T15:27:01.024Z,95.65
2022-12-18T15:29:27.965Z,95.40
2022-12-18T15:32:02.145Z,95.07
2022-12-18T15:34:28.947Z,94.97
2022-12-18T15:36:55.587Z,96.05
2022-12-18T15:39:22.199Z,97.47
2022-12-18T15:42:07.517Z,96.77
2022-12-18T15:44:34.671Z,96.28
2022-12-18T15:47:01.214Z,95.66
2022-12-18T15:49:27.786Z,96.50
2022-12-18T15:52:01.155Z,96.04
2022-12-18T15:54:46.520Z,95.63
2022-12-18T15:57:25.384Z,96.87
2022-12-18T15:59:53.726Z,96.94
2022-12-18T16:02:21.177Z,97.28
2022-12-18T16:04:47.920Z,96.76
2022-12-18T16:07:18.867Z,96.81
2022-12-18T16:09:51.248Z,97.52
2022-12-18T16:12:19.310Z,97.97
2022-12-18T16:14:46.727Z,98.17
2022-12-18T16:17:16.088Z,99.16
2022-12-18T16:19:42.672Z,98.47
2022-12-18T16:22:17.255Z,98.25
2022-12-18T16:24:44.507Z,99.62
2022-12-18T16:27:11.080Z,99.20
2022-12-18T16:29:38.056Z,99.82
2022-12-18T16:32:04.921Z,99.52
2022-12-18T16:34:35.410Z,98.90
2022-12-18T16:37:05.794Z,98.20
2022-12-18T16:39:34.447Z,99.13
2022-12-18T16:42:05.605Z,99.54
2022-12-18T16:44:33.274Z,99.96
2022-12-18T16:47:02.875Z,99.82
2022-12-18T16:49:30.612Z,99.75
2022-12-18T16:51:57.447Z,98.97
2022-12-18T16:54:24.212Z,99.25
2022-12-18T16:56:51.717Z,99.89
2022-12-18T16:59:19.166Z,100.00
2022-12-18T17:01:47.974Z,99.24
2022-12-18T17:04:15.343Z,99.45
2022-12-18T17:06:43.507Z,99.35
2022-12-18T17:09:17.329Z,100.00
2022-12-18T17:11:44.504Z,100.00
2022-12-18T17:14:13.787Z,100.00
2022-12-18T17:16:40.399Z,100.00
2022-12-18T17:19:09.758Z,100.00
2022-12-18T17:21:41.066Z,100.00
2022-12-18T17:24:08.497Z,100.00
2022-12-18T17:26:37.493Z,100.00
2022-12-18T17:29:04.239Z,100.00
2022-12-18T17:31:31.941Z,100.00
2022-12-18T17:33:59.154Z,100.00
2022-12-18T17:36:32.437Z,100.00
2022-12-18T17:39:00.392Z,100.00
2022-12-18T17:41:31.413Z,100.00
2022-12-18T17:43:59.505Z,100.00
2022-12-18T17:46:33.138Z,100.00
2022-12-18T17:49:01.996Z,100.00
2022-12-18T17:51:29.308Z,100.00
2022-12-18T17:53:56.919Z,100.00
2022-12-18T17:56:26.366Z,100.00
2022-12-18T17:58:55.036Z,100.00
2022-12-18T18:01:25.461Z,100.00
2022-12-18T18:03:54.074Z,100.00
2022-12-18T18:06:22.386Z,100.00
2022-12-18T18:08:48.920Z,100.00
2022-12-18T18:11:35.502Z,100.00
2022-12-18T18:14:05.204Z,100.00
2022-12-18T18:16:36.648Z,100.00
2022-12-18T18:19:05.603Z,100.00
2022-12-18T18:21:32.714Z,100.00
2022-12-18T18:24:01.221Z,100.00
2022-12-18T18:26:31.182Z,100.00
2022-12-18T18:29:03.005Z,100.00
2022-12-18T18:31:32.730Z,100.00
2022-12-18T18:34:01.874Z,100.00
2022-12-18T18:36:28.653Z,100.00
2022-12-18T18:38:59.226Z,100.00
2022-12-18T18:41:25.759Z,100.00
2022-12-18T18:43:56.316Z,100.00
2022-12-18T18:46:23.309Z,100.00
2022-12-18T18:48:50.141Z,100.00
2022-12-18T18:51:21.707Z,100.00
2022-12-18T18:53:49.626Z,100.00
2022-12-18T18:56:45.366Z,100.00
2022-12-18T18:59:04.629Z,100.00
2022-12-18T19:01:31.558Z,100.00
2022-12-18T19:03:58.216Z,100.00
2022-12-18T19:06:26.614Z,100.00
2022-12-18T19:08:54.021Z,100.00
2022-12-18T19:11:40.420Z,100.00
2022-12-18T19:14:07.795Z,100.00
2022-12-18T19:16:35.552Z,100.00
2022-12-18T19:19:05.564Z,100.00
2022-12-18T19:21:34.517Z,100.00
2022-12-18T19:24:01.950Z,100.00
2022-12-18T19:26:29.016Z,100.00
2022-12-18T19:29:00.468Z,100.00
2022-12-18T19:31:30.479Z,100.00
2022-12-18T19:34:01.760Z,100.00
2022-12-18T19:36:32.216Z,100.00
2022-12-18T19:39:01.229Z,100.00
2022-12-18T19:41:29.221Z,100.00
2022-12-18T19:43:58.493Z,100.00
2022-12-18T19:46:25.244Z,100.00
2022-12-18T19:48:51.999Z,100.00
2022-12-18T19:51:18.683Z,100.00
2022-12-18T19:53:45.480Z,100.00
2022-12-18T19:56:13.566Z,100.00
2022-12-18T19:58:40.546Z,100.00
2022-12-18T20:01:07.511Z,100.00
2022-12-18T20:03:35.760Z,100.00
2022-12-18T20:06:13.480Z,100.00
2022-12-18T20:08:40.520Z,100.00
2022-12-18T20:11:07.543Z,100.00
2022-12-18T20:13:34.348Z,100.00
2022-12-18T20:16:01.073Z,100.00
2022-12-18T20:18:27.646Z,100.00
2022-12-18T20:20:54.559Z,100.00
2022-12-18T20:23:23.254Z,100.00
2022-12-18T20:25:52.310Z,100.00
2022-12-18T20:28:18.952Z,100.00
2022-12-18T20:30:46.207Z,100.00
2022-12-18T20:33:12.773Z,100.00
2022-12-18T20:35:41.004Z,100.00
2022-12-18T20:38:08.286Z,100.00
2022-12-18T20:40:35.559Z,100.00
2022-12-18T20:43:02.828Z,100.00
2022-12-18T20:45:29.899Z,100.00
2022-12-18T20:47:56.793Z,100.00
2022-12-18T20:50:23.276Z,100.00
2022-12-18T20:52:49.761Z,100.00
2022-12-18T20:55:16.354Z,100.00
2022-12-18T20:57:42.929Z,100.00
2022-12-18T21:00:11.192Z,100.00
2022-12-18T21:02:39.272Z,100.00
2022-12-18T21:05:06.090Z,100.00
2022-12-18T21:07:32.654Z,100.00
2022-12-18T21:09:59.337Z,100.00
2022-12-18T21:12:40.511Z,100.00
2022-12-18T21:15:10.573Z,100.00
2022-12-18T21:17:44.090Z,100.00
2022-12-18T21:20:11.885Z,100.00
2022-12-18T21:22:44.518Z,100.00
2022-12-18T21:25:11.134Z,100.00
2022-12-18T21:27:38.275Z,100.00
2022-12-18T21:30:05.249Z,100.00
2022-12-18T21:32:33.607Z,100.00
2022-12-18T21:35:00.457Z,100.00
2022-12-18T21:37:26.944Z,100.00
2022-12-18T21:39:53.483Z,100.00
2022-12-18T21:42:38.752Z,100.00
2022-12-18T21:45:05.511Z,100.00
2022-12-18T21:47:32.018Z,100.00
2022-12-18T21:49:58.739Z,100.00
2022-12-18T21:52:32.297Z,100.00
2022-12-18T21:55:09.372Z,100.00
2022-12-18T21:57:37.019Z,100.00
2022-12-18T22:00:04.375Z,100.00
2022-12-18T22:02:39.201Z,100.00
2022-12-18T22:05:06.452Z,100.00
2022-12-18T22:07:33.618Z,100.00
2022-12-18T22:10:00.231Z,100.00
2022-12-18T22:12:42.904Z,100.00
2022-12-18T22:15:11.188Z,100.00
2022-12-18T22:17:39.295Z,100.00
2022-12-18T22:20:06.296Z,100.00
2022-12-18T22:22:32.774Z,100.00
2022-12-18T22:24:59.239Z,100.00
2022-12-18T22:27:25.846Z,100.00
2022-12-18T22:30:10.398Z,100.00
2022-12-18T22:32:37.210Z,100.00
2022-12-18T22:35:09.524Z,100.00
2022-12-18T22:37:43.801Z,100.00
2022-12-18T22:40:23.700Z,100.00
2022-12-18T22:42:52.761Z,100.00
2022-12-18T22:45:24.136Z,100.00
2022-12-18T22:47:50.852Z,100.00
2022-12-18T22:50:17.430Z,100.00
2022-12-18T22:52:43.926Z,100.00
2022-12-18T22:55:10.450Z,100.00
2022-12-18T22:57:36.986Z,100.00
2022-12-18T23:00:06.429Z,100.00
2022-12-18T23:02:33.060Z,100.00
2022-12-18T23:04:59.767Z,100.00
2022-12-18T23:07:26.349Z,100.00
2022-12-18T23:09:57.366Z,100.00
2022-12-18T23:12:27.708Z,100.00
2022-12-18T23:14:54.680Z,100.00
2022-12-18T23:17:21.319Z,100.00
2022-12-18T23:19:49.415Z,100.00
2022-12-18T23:22:16.824Z,100.00
2022-12-18T23:24:43.475Z,100.00
2022-12-18T23:27:11.403Z,100.00
2022-12-18T23:29:39.309Z,100.00
2022-12-18T23:32:05.869Z,100.00
2022-12-18T23:34:32.473Z,100.00
2022-12-18T23:36:59.171Z,100.00
2022-12-18T23:39:30.053Z,100.00
2022-12-18T23:41:57.632Z,100.00
2022-12-18T23:44:24.319Z,100.00
2022-12-18T23:46:50.951Z,100.00
2022-12-18T23:49:17.557Z,100.00
2022-12-18T23:51:44.190Z,100.00
2022-12-18T23:54:10.753Z,100.00
2022-12-18T23:56:37.604Z,100.00
2022-12-18T23:59:04.160Z,100.00
